This is the latest recevied weather packets stored in our database for station/object KI4MRC. If no packets are shown the sender has not sent any weather packets the latest 10 day(s).
| Time | Temp. | Humidity | Pressure | Rain* | Wind** | Luminosity | Snow |
|---|---|---|---|---|---|---|---|
| 1777474870 | 29.44° C | 59% | 1017.3 hPa | 0 mm | - | 245 W/m² | - |
| 1777474565 | 30.56° C | 56% | 1017.3 hPa | 0 mm | - | 208 W/m² | - |
| 1777474262 | 30.56° C | 58% | 1017.1 hPa | 0 mm | - | 860 W/m² | - |
| 1777473959 | 30° C | 57% | 1017.1 hPa | 0 mm | - | 827 W/m² | - |
| 1777473657 | 29.44° C | 61% | 1016.8 hPa | 0 mm | - | 724 W/m² | - |
| 1777473353 | 29.44° C | 59% | 1017 hPa | 0 mm | - | 287 W/m² | - |
| 1777473049 | 29.44° C | 60% | 1017.2 hPa | 0 mm | - | 631 W/m² | - |
| 1777472745 | 30.56° C | 57% | 1017.1 hPa | 0 mm | - | 742 W/m² | - |
| 1777472442 | 29.44° C | 60% | 1016.9 hPa | 0 mm | - | 759 W/m² | - |
| 1777472140 | 29.44° C | 63% | 1017 hPa | 0 mm | - | 742 W/m² | - |
| 1777471839 | 28.89° C | 62% | 1017 hPa | 0 mm | - | 648 W/m² | - |
| 1777471536 | 28.33° C | 66% | 1016.9 hPa | 0 mm | - | 512 W/m² | - |
| 1777471233 | 28.33° C | 66% | 1017 hPa | 0 mm | - | 281 W/m² | - |
| 1777470930 | 27.78° C | 72% | 1016.9 hPa | 0 mm | - | 755 W/m² | - |
| 1777470627 | 27.22° C | 74% | 1016.9 hPa | 0 mm | - | 156 W/m² | - |
| 1777470323 | 26.67° C | 71% | 1016.9 hPa | 0 mm | - | 102 W/m² | - |
| 1777470020 | 27.22° C | 72% | 1016.9 hPa | 0 mm | - | 163 W/m² | - |
| 1777469716 | 28.33° C | 67% | 1016.7 hPa | 0 mm | - | 100 W/m² | - |
| 1777469412 | 28.33° C | 69% | 1016.5 hPa | 0 mm | - | 183 W/m² | - |
| 1777469107 | 28.33° C | 69% | 1016.4 hPa | 0 mm | - | 360 W/m² | - |
| 1777468806 | 27.78° C | 70% | 1016.4 hPa | 0 mm | - | 483 W/m² | - |
| 1777468503 | 28.33° C | 69% | 1016.4 hPa | 0 mm | - | 443 W/m² | - |
| 1777468200 | 28.33° C | 69% | 1016.3 hPa | 0 mm | - | 486 W/m² | - |
| 1777467896 | 28.33° C | 70% | 1016.1 hPa | 0 mm | - | 529 W/m² | - |
| 1777467592 | 27.78° C | 74% | 1016.3 hPa | 0 mm | - | 728 W/m² | - |
* Rain latest hour (hover to see other rain measurements)
** Current wind speed in m/s (hover to see current wind gust speed)